Time;durP1;ratioP1;P1;durP2;ratioP2;P2;SDS_P1;SDS_P2;PMS_P1;PMS_P2;Temp;Humidity;BMP_temperature;BMP_pressure;BME280_temperature;BME280_humidity;BME280_pressure;Samples;Min_cycle;Max_cycle;Signal;HPM_P1;HPM_P2
2022/07/13 00:04:34;;;;;;;3.50;1.83;;;;;;;19.18;100.00;102022.56;10449818;28;20049;-67
2022/07/13 00:09:35;;;;;;;5.15;2.30;;;;;;;19.07;100.00;102019.81;10462663;28;20040;-68
2022/07/13 00:14:35;;;;;;;3.05;1.90;;;;;;;19.11;100.00;102029.28;10449371;28;20079;-68
2022/07/13 00:19:36;;;;;;;3.65;1.83;;;;;;;19.01;100.00;102015.34;10449737;28;20044;-67
2022/07/13 00:24:36;;;;;;;3.22;1.85;;;;;;;19.02;100.00;102017.03;10450156;28;20067;-68
2022/07/13 00:29:36;;;;;;;5.50;1.60;;;;;;;18.97;100.00;102011.47;10448969;28;20052;-67
2022/07/13 00:34:37;;;;;;;2.22;1.95;;;;;;;18.73;100.00;101978.59;10449831;28;20036;-67
2022/07/13 00:39:37;;;;;;;5.78;2.00;;;;;;;18.89;100.00;102003.66;10448378;28;20099;-68
2022/07/13 00:44:38;;;;;;;3.67;2.30;;;;;;;18.87;100.00;102005.91;10449884;28;20060;-68
2022/07/13 00:49:38;;;;;;;1.92;1.70;;;;;;;18.79;100.00;101995.31;10447486;28;20037;-68
2022/07/13 00:54:40;;;;;;;6.47;2.05;;;;;;;18.84;100.00;101982.22;10481777;28;20036;-68
2022/07/13 00:59:40;;;;;;;4.10;2.85;;;;;;;18.84;100.00;101979.41;10488827;28;20480;-68
2022/07/13 01:04:41;;;;;;;2.70;2.13;;;;;;;18.85;100.00;101971.88;10491130;28;20037;-68
2022/07/13 01:09:41;;;;;;;5.07;2.28;;;;;;;18.84;100.00;101964.63;10488000;28;20032;-68
2022/07/13 01:14:42;;;;;;;2.72;1.85;;;;;;;18.82;100.00;101966.88;10487354;28;20112;-68
2022/07/13 01:19:42;;;;;;;4.25;2.80;;;;;;;18.80;100.00;101952.38;10486635;28;20032;-68
2022/07/13 01:24:43;;;;;;;3.22;2.67;;;;;;;18.81;100.00;101954.03;10470870;28;20033;-68
2022/07/13 01:29:43;;;;;;;2.97;2.67;;;;;;;18.70;100.00;101931.72;10487782;28;20064;-64
2022/07/13 01:34:44;;;;;;;3.60;2.65;;;;;;;18.70;100.00;101925.31;10489636;28;20049;-67
2022/07/13 01:39:44;;;;;;;4.00;3.20;;;;;;;18.77;100.00;101925.84;10487434;28;20033;-66
2022/07/13 01:44:45;;;;;;;3.67;3.08;;;;;;;18.74;100.00;101907.72;10488489;28;20739;-67
2022/07/13 01:49:46;;;;;;;5.25;3.80;;;;;;;18.75;100.00;101901.03;10449796;28;20531;-67
2022/07/13 01:54:46;;;;;;;5.63;4.47;;;;;;;18.73;100.00;101906.06;10446376;28;20037;-68
2022/07/13 01:59:46;;;;;;;4.30;3.90;;;;;;;18.63;100.00;101903.28;10447978;28;20048;-68
2022/07/13 02:04:47;;;;;;;4.90;4.40;;;;;;;18.71;100.00;101911.09;10445995;28;20037;-67
2022/07/13 02:09:51;;;;;;;4.35;3.95;;;;;;;18.73;100.00;101906.06;10443897;28;20041;-68
2022/07/13 02:14:51;;;;;;;6.22;4.00;;;;;;;18.73;100.00;101892.09;10447322;28;20037;-68
2022/07/13 02:19:52;;;;;;;4.55;4.07;;;;;;;18.67;100.00;101876.50;10454210;28;20041;-68
2022/07/13 02:24:52;;;;;;;6.38;4.10;;;;;;;18.73;100.00;101880.94;10483103;28;20468;-67
2022/07/13 02:29:52;;;;;;;9.18;4.85;;;;;;;18.73;100.00;101858.63;10455696;28;20457;-66
2022/07/13 02:34:53;;;;;;;4.90;4.47;;;;;;;18.73;100.00;101853.06;10455905;28;20044;-67
2022/07/13 02:39:56;;;;;;;7.65;5.45;;;;;;;18.72;100.00;101823.47;10455074;28;20052;-67
2022/07/13 02:44:56;;;;;;;11.95;5.82;;;;;;;18.64;100.00;101848.34;10454043;28;20374;-67
2022/07/13 02:49:57;;;;;;;7.53;5.70;;;;;;;18.69;100.00;101857.53;10452939;28;20041;-68
2022/07/13 02:54:58;;;;;;;6.40;5.80;;;;;;;18.73;100.00;101864.22;10489591;28;20048;-68
2022/07/13 02:59:59;;;;;;;7.82;6.05;;;;;;;18.78;100.00;101870.88;10496312;28;20128;-66
2022/07/13 03:04:59;;;;;;;7.90;6.35;;;;;;;18.78;100.00;101851.34;10493291;28;20057;-67
2022/07/13 03:10:00;;;;;;;7.60;5.95;;;;;;;18.83;100.00;101851.34;10494389;28;20033;-67
2022/07/13 03:15:01;;;;;;;7.13;6.25;;;;;;;18.84;100.00;101850.25;10491853;28;20060;-68
2022/07/13 03:20:01;;;;;;;6.65;5.53;;;;;;;18.85;100.00;101838.81;10492367;28;20060;-68
2022/07/13 03:25:04;;;;;;;6.03;5.40;;;;;;;18.83;100.00;101846.63;10491343;28;20047;-67
2022/07/13 03:30:05;;;;;;;6.95;5.43;;;;;;;18.82;100.00;101852.50;10492329;28;20040;-68
2022/07/13 03:35:06;;;;;;;9.13;5.65;;;;;;;18.79;100.00;101844.69;10493619;28;20029;-68
2022/07/13 03:40:07;;;;;;;7.32;5.43;;;;;;;18.72;100.00;101833.81;10492858;28;20470;-67
2022/07/13 03:45:08;;;;;;;9.93;6.47;;;;;;;18.70;100.00;101836.03;10492847;28;20044;-68
2022/07/13 03:50:08;;;;;;;8.15;7.18;;;;;;;18.75;100.00;101838.81;10475649;28;20032;-67
2022/07/13 03:55:09;;;;;;;7.78;6.10;;;;;;;18.72;100.00;101829.06;10450741;28;20082;-63
2022/07/13 04:00:09;;;;;;;7.13;6.43;;;;;;;18.81;100.00;101831.28;10453824;28;20096;-67
2022/07/13 04:05:10;;;;;;;8.18;6.55;;;;;;;18.81;100.00;101820.13;10433251;28;20036;-68
2022/07/13 04:10:10;;;;;;;11.23;6.82;;;;;;;18.94;100.00;101828.69;10448748;28;20088;-67
2022/07/13 04:15:11;;;;;;;7.07;6.03;;;;;;;19.03;100.00;101806.59;10449707;28;20068;-68
2022/07/13 04:20:12;;;;;;;7.28;6.03;;;;;;;19.02;100.00;101799.38;10472031;28;20043;-68
2022/07/13 04:25:12;;;;;;;9.23;6.25;;;;;;;18.99;100.00;101801.88;10489925;28;20476;-68
2022/07/13 04:30:13;;;;;;;8.70;6.97;;;;;;;19.05;100.00;101809.94;10474334;28;20032;-67
2022/07/13 04:35:13;;;;;;;7.13;6.43;;;;;;;19.17;100.00;101800.38;10488608;28;20036;-67
2022/07/13 04:40:14;;;;;;;8.95;6.45;;;;;;;19.20;100.00;101799.78;10487641;28;20049;-68
2022/07/13 04:45:18;;;;;;;6.53;5.82;;;;;;;19.21;100.00;101802.28;10489668;28;20043;-68
2022/07/13 04:50:19;;;;;;;8.43;6.28;;;;;;;19.20;100.00;101788.63;10490747;28;20546;-66
2022/07/13 04:55:19;;;;;;;8.13;6.93;;;;;;;19.24;100.00;101784.13;10446751;28;20033;-67
2022/07/13 05:00:20;;;;;;;7.18;6.25;;;;;;;19.34;100.00;101789.63;10450476;28;20041;-68
2022/07/13 05:05:21;;;;;;;8.20;6.15;;;;;;;19.40;100.00;101782.88;10487713;28;20064;-68
2022/07/13 05:10:22;;;;;;;8.27;6.32;;;;;;;19.44;100.00;101770.00;10489425;28;20024;-67
2022/07/13 05:15:22;;;;;;;8.55;7.63;;;;;;;19.51;100.00;101764.94;10488167;28;20037;-68
2022/07/13 05:20:23;;;;;;;11.85;6.63;;;;;;;19.65;100.00;101772.59;10489084;28;20032;-68
2022/07/13 05:25:25;;;;;;;8.18;6.78;;;;;;;19.72;100.00;101762.81;10484191;28;20133;-67
2022/07/13 05:30:25;;;;;;;9.82;7.38;;;;;;;19.83;100.00;101774.69;10487847;28;20496;-67
2022/07/13 05:35:26;;;;;;;7.90;6.18;;;;;;;19.84;100.00;101784.72;10485677;28;20068;-67
2022/07/13 05:40:26;;;;;;;7.82;6.78;;;;;;;19.89;100.00;101787.50;10469173;28;20032;-69
2022/07/13 05:45:27;;;;;;;8.63;6.65;;;;;;;19.80;100.00;101780.84;10485866;28;20044;-67
2022/07/13 05:50:27;;;;;;;7.15;6.32;;;;;;;19.95;100.00;101786.31;10468937;28;20090;-68
2022/07/13 05:55:28;;;;;;;8.07;6.53;;;;;;;20.04;100.00;101797.66;10447557;28;20063;-68
2022/07/13 06:00:28;;;;;;;7.15;5.75;;;;;;;20.07;100.00;101779.47;10446213;28;20040;-68
2022/07/13 06:05:29;;;;;;;8.90;7.40;;;;;;;20.26;100.00;101777.56;10478723;28;20040;-67
2022/07/13 06:10:30;;;;;;;9.10;6.65;;;;;;;20.38;100.00;101782.72;10485886;28;20028;-68
2022/07/13 06:15:30;;;;;;;11.00;6.78;;;;;;;20.44;100.00;101783.50;10487658;28;20075;-66
2022/07/13 06:20:31;;;;;;;9.65;6.35;;;;;;;20.51;100.00;101784.00;10487559;28;20056;-68
2022/07/13 06:25:31;;;;;;;7.70;5.85;;;;;;;20.65;100.00;101784.09;10469945;28;20032;-68
2022/07/13 06:30:35;;;;;;;8.32;6.10;;;;;;;20.67;100.00;101782.69;10488351;28;20036;-68
2022/07/13 06:35:36;;;;;;;8.15;6.65;;;;;;;20.87;100.00;101786.31;10481788;28;20048;-67
2022/07/13 06:40:36;;;;;;;8.38;6.28;;;;;;;21.05;100.00;101788.28;10487297;28;20082;-68
2022/07/13 06:45:37;;;;;;;7.25;5.28;;;;;;;21.28;100.00;101774.50;10486774;28;20047;-68
2022/07/13 06:50:38;;;;;;;7.40;5.75;;;;;;;21.48;100.00;101774.19;10475089;28;20048;-68
2022/07/13 06:55:38;;;;;;;8.27;5.97;;;;;;;21.76;100.00;101771.44;10429026;28;20036;-68
2022/07/13 07:00:39;;;;;;;8.80;5.90;;;;;;;22.05;100.00;101775.94;10468058;28;20059;-68
2022/07/13 07:05:39;;;;;;;11.82;7.10;;;;;;;22.09;100.00;101755.38;10493631;28;20042;-66
2022/07/13 07:10:40;;;;;;;10.68;6.32;;;;;;;22.10;100.00;101762.66;10493320;28;20048;-68
2022/07/13 07:15:41;;;;;;;7.75;5.75;;;;;;;22.38;100.00;101762.66;10494519;28;20056;-67
2022/07/13 07:20:41;;;;;;;10.63;5.93;;;;;;;22.80;100.00;101751.38;10493508;28;20044;-68
2022/07/13 07:25:42;;;;;;;10.48;7.38;;;;;;;22.83;100.00;101743.16;10466378;28;20082;-67
2022/07/13 07:30:42;;;;;;;9.20;6.78;;;;;;;23.00;100.00;101745.28;10493865;28;20029;-68
2022/07/13 07:35:43;;;;;;;8.15;5.75;;;;;;;23.10;100.00;101749.84;10494422;28;20032;-68
2022/07/13 07:40:43;;;;;;;7.90;7.10;;;;;;;23.26;100.00;101755.94;10493315;28;20040;-68
2022/07/13 07:45:44;;;;;;;8.73;5.88;;;;;;;23.30;100.00;101748.53;10492433;28;20029;-67
2022/07/13 07:50:44;;;;;;;9.98;6.20;;;;;;;23.33;100.00;101753.50;10492600;28;20082;-67
2022/07/13 07:55:45;;;;;;;19.23;7.40;;;;;;;23.74;100.00;101735.56;10494547;28;20033;-67
2022/07/13 08:00:45;;;;;;;8.90;7.20;;;;;;;23.95;100.00;101738.66;10483507;28;20052;-66
2022/07/13 08:05:48;;;;;;;11.25;7.53;;;;;;;23.88;100.00;101741.94;10471326;28;20126;-67
2022/07/13 08:10:48;;;;;;;8.75;6.65;;;;;;;24.00;100.00;101729.22;10490739;28;20098;-68
2022/07/13 08:15:49;;;;;;;13.15;6.43;;;;;;;24.26;100.00;101730.16;10492069;28;20071;-67
2022/07/13 08:20:49;;;;;;;11.13;6.70;;;;;;;24.41;100.00;101733.66;10492636;28;20510;-67
2022/07/13 08:25:50;;;;;;;11.18;7.30;;;;;;;24.44;100.00;101730.22;10492177;28;20451;-67
2022/07/13 08:30:50;;;;;;;14.93;8.93;;;;;;;24.41;100.00;101730.84;10491768;28;20025;-68
2022/07/13 08:41:10;;;;;;;12.40;8.05;;;;;;;24.86;100.00;101724.97;10491953;28;20484;-68
2022/07/13 08:46:11;;;;;;;9.45;7.53;;;;;;;25.10;100.00;101735.75;10490212;28;20040;-68
2022/07/13 08:51:11;;;;;;;8.80;6.63;;;;;;;25.43;100.00;101729.59;10482892;28;20048;-67
2022/07/13 08:56:11;;;;;;;9.43;6.85;;;;;;;25.39;100.00;101720.97;10447381;28;20037;-68
2022/07/13 09:01:12;;;;;;;7.47;5.80;;;;;;;25.40;100.00;101718.97;10429521;28;20040;-67
2022/07/13 09:06:48;;;;;;;7.65;6.07;;;;;;;25.85;100.00;101707.22;10447492;28;20044;-68
2022/07/13 09:11:48;;;;;;;6.22;5.22;;;;;;;26.12;100.00;101715.22;10461224;28;20059;-67
2022/07/13 09:16:51;;;;;;;8.20;4.43;;;;;;;26.26;100.00;101715.00;10490457;28;20040;-67
2022/07/13 09:22:11;;;;;;;7.53;4.38;;;;;;;26.34;99.27;101716.13;10491233;28;20389;-67
2022/07/13 09:27:12;;;;;;;5.57;4.57;;;;;;;26.49;97.34;101709.03;10488840;28;20032;-68
2022/07/13 09:32:13;;;;;;;4.57;3.22;;;;;;;26.62;94.25;101705.13;10468205;28;20056;-68
2022/07/13 09:37:14;;;;;;;7.68;4.35;;;;;;;26.55;97.37;101710.50;10469357;28;20036;-67
2022/07/13 09:42:29;;;;;;;4.95;3.05;;;;;;;26.51;90.70;101692.59;10489756;28;20561;-67
2022/07/13 09:47:29;;;;;;;4.45;2.83;;;;;;;26.73;82.71;101686.63;10489042;28;20032;-67
2022/07/13 09:52:31;;;;;;;4.13;2.38;;;;;;;27.05;83.85;101711.59;10486959;28;20029;-68
2022/07/13 09:57:31;;;;;;;4.25;3.03;;;;;;;27.09;84.80;101723.88;10477223;28;20234;-65
2022/07/13 10:02:32;;;;;;;6.30;3.83;;;;;;;27.10;85.41;101723.53;10444477;28;20033;-66
2022/07/13 10:07:33;;;;;;;9.82;2.33;;;;;;;27.36;82.57;101720.44;10481322;28;20040;-67
2022/07/13 10:12:36;;;;;;;5.35;2.80;;;;;;;27.29;80.62;101722.22;10488279;28;20037;-67
2022/07/13 10:17:37;;;;;;;4.80;2.45;;;;;;;27.37;76.68;101707.16;10467235;28;20045;-66
2022/07/13 10:22:43;;;;;;;8.00;2.65;;;;;;;27.63;76.19;101700.38;10445184;28;20041;-66
2022/07/13 10:27:43;;;;;;;5.13;2.83;;;;;;;27.62;76.53;101724.16;10446156;28;20033;-66
2022/07/13 10:32:46;;;;;;;3.38;2.33;;;;;;;27.85;73.97;101722.56;10464801;28;20043;-66
2022/07/13 10:37:55;;;;;;;5.20;1.83;;;;;;;28.12;73.48;101723.91;10491498;28;20040;-66
2022/07/13 10:43:00;;;;;;;4.03;1.77;;;;;;;28.35;72.28;101729.91;10498083;28;20040;-66
2022/07/13 10:48:20;;;;;;;6.38;2.35;;;;;;;28.31;71.39;101733.81;10496849;28;20393;-67
2022/07/13 10:53:43;;;;;;;3.47;1.60;;;;;;;28.03;69.34;101728.03;10493936;28;20041;-66
2022/07/13 10:58:44;;;;;;;2.80;1.80;;;;;;;28.16;67.79;101715.53;10453952;28;20048;-66
2022/07/13 11:03:46;;;;;;;4.60;2.25;;;;;;;28.16;69.95;101730.50;10435598;28;20036;-66
2022/07/13 11:08:46;;;;;;;4.82;1.35;;;;;;;28.26;69.65;101726.38;10450105;28;20037;-66
2022/07/13 11:13:48;;;;;;;2.75;1.30;;;;;;;28.36;69.34;101725.91;10471735;28;20131;-66
2022/07/13 11:18:52;;;;;;;4.05;1.80;;;;;;;28.65;64.55;101737.31;10479824;28;20036;-66
2022/07/13 11:29:44;;;;;;;1.75;1.15;;;;;;;28.65;63.20;101745.81;10491713;28;20052;-64
2022/07/13 11:34:46;;;;;;;4.40;1.58;;;;;;;28.60;63.12;101734.75;10470938;28;20051;-68
2022/07/13 11:39:47;;;;;;;2.58;1.00;;;;;;;28.90;62.01;101738.06;10487310;28;20493;-66
2022/07/13 11:44:49;;;;;;;3.42;1.30;;;;;;;29.17;61.46;101725.13;10471572;28;20032;-67
2022/07/13 11:49:51;;;;;;;2.45;1.40;;;;;;;29.36;59.27;101728.09;10471166;28;20067;-66
2022/07/13 11:55:09;;;;;;;2.92;1.17;;;;;;;29.98;59.69;101745.59;10451240;28;20036;-66
2022/07/13 12:00:10;;;;;;;4.80;1.50;;;;;;;29.33;61.84;101753.53;10471841;28;20045;-66
2022/07/13 12:05:11;;;;;;;1.98;1.40;;;;;;;29.33;59.68;101740.19;10471698;28;20096;-67
2022/07/13 12:10:11;;;;;;;7.10;2.28;;;;;;;29.90;60.04;101757.13;10470431;28;20033;-66
2022/07/13 12:15:12;;;;;;;3.60;1.65;;;;;;;29.38;59.77;101762.59;10471165;28;20098;-66
2022/07/13 12:20:17;;;;;;;3.47;1.33;;;;;;;30.10;59.11;101753.19;10490521;28;20040;-66
2022/07/13 12:25:34;;;;;;;4.53;1.65;;;;;;;30.19;59.94;101770.03;10473898;28;20113;-66
2022/07/13 12:30:37;;;;;;;5.05;1.60;;;;;;;29.49;61.00;101784.78;10461829;28;20051;-66
2022/07/13 12:35:39;;;;;;;4.95;1.73;;;;;;;29.46;61.49;101791.19;10464577;28;20048;-66
2022/07/13 12:40:49;;;;;;;4.15;1.65;;;;;;;29.81;62.92;101796.19;10465829;28;20060;-65
2022/07/13 12:45:57;;;;;;;12.73;2.05;;;;;;;29.95;61.96;101788.91;10450728;28;20052;-66
2022/07/13 12:51:07;;;;;;;5.90;1.42;;;;;;;30.12;60.51;101795.41;10451909;28;20047;-64
2022/07/13 12:56:08;;;;;;;3.72;1.63;;;;;;;29.93;59.70;101796.97;10468034;28;20056;-66
2022/07/13 13:01:08;;;;;;;6.45;1.45;;;;;;;29.98;62.56;101810.88;10473158;28;20044;-65
2022/07/13 13:06:09;;;;;;;8.00;1.98;;;;;;;30.52;61.15;101803.75;10451470;28;20047;-65
2022/07/13 13:11:10;;;;;;;6.35;1.55;;;;;;;31.09;60.47;101809.09;10447668;28;20045;-66
2022/07/13 13:16:11;;;;;;;5.38;1.40;;;;;;;31.17;56.03;101799.53;10438012;28;20067;-65
2022/07/13 13:21:11;;;;;;;6.10;1.30;;;;;;;30.47;59.48;101814.56;10449762;28;20048;-64
2022/07/13 13:26:12;;;;;;;9.75;2.30;;;;;;;30.30;60.87;101822.25;10448620;28;20045;-65
2022/07/13 13:31:15;;;;;;;4.80;1.77;;;;;;;30.36;61.72;101820.78;10441200;28;20033;-64
2022/07/13 13:36:16;;;;;;;4.18;1.80;;;;;;;30.49;60.69;101817.84;10450828;28;20040;-67
2022/07/13 13:41:16;;;;;;;3.35;1.42;;;;;;;29.92;64.92;101828.56;10484262;28;20044;-62
2022/07/13 13:46:17;;;;;;;3.28;1.58;;;;;;;30.05;66.16;101840.66;10446569;28;20114;-65
2022/07/13 13:51:17;;;;;;;4.97;1.88;;;;;;;29.33;65.29;101835.78;10457532;28;20041;-65
2022/07/13 13:56:18;;;;;;;7.22;1.88;;;;;;;29.03;67.80;101858.75;10467165;28;20029;-65
2022/07/13 14:01:18;;;;;;;5.13;1.95;;;;;;;28.52;66.27;101847.00;10458377;28;20037;-66
2022/07/13 14:06:19;;;;;;;5.82;1.95;;;;;;;29.03;65.76;101844.56;10467282;28;20067;-65
2022/07/13 14:11:19;;;;;;;4.18;1.52;;;;;;;29.23;65.26;101830.59;10467007;28;20037;-64
2022/07/13 14:16:20;;;;;;;5.97;1.80;;;;;;;29.38;64.62;101838.38;10496219;28;20052;-64
2022/07/13 14:21:20;;;;;;;4.75;2.17;;;;;;;29.21;64.83;101850.00;10497719;28;20048;-65
2022/07/13 14:26:20;;;;;;;4.72;1.90;;;;;;;29.52;64.67;101843.66;10476043;28;20037;-65
2022/07/13 14:31:21;;;;;;;5.97;1.60;;;;;;;29.64;63.69;101848.41;10474632;28;20033;-67
2022/07/13 14:36:25;;;;;;;7.63;1.73;;;;;;;29.69;61.48;101848.16;10472512;28;20046;-65
2022/07/13 14:41:25;;;;;;;8.02;1.75;;;;;;;29.37;62.73;101860.25;10474754;28;20044;-64
2022/07/13 14:46:26;;;;;;;5.68;1.58;;;;;;;28.93;63.84;101856.41;10484989;28;20411;-67
2022/07/13 14:51:27;;;;;;;5.95;1.75;;;;;;;29.13;62.67;101863.97;10496729;28;20455;-65
2022/07/13 14:56:27;;;;;;;8.52;1.52;;;;;;;28.47;64.92;101865.03;10495710;28;20029;-65
2022/07/13 15:01:28;;;;;;;2.60;1.40;;;;;;;29.26;63.30;101841.25;10492230;28;20037;-66
2022/07/13 15:06:28;;;;;;;5.10;1.70;;;;;;;29.15;61.99;101850.25;10491684;28;20036;-64
2022/07/13 15:11:29;;;;;;;5.90;1.58;;;;;;;29.18;60.70;101852.34;10494079;28;20052;-67
2022/07/13 15:16:30;;;;;;;6.55;1.98;;;;;;;29.14;60.32;101844.94;10474766;28;20291;-63
2022/07/13 15:21:30;;;;;;;7.28;1.92;;;;;;;29.21;59.91;101859.34;10474770;28;20075;-63
2022/07/13 15:26:31;;;;;;;4.90;1.48;;;;;;;29.06;59.51;101865.72;10469466;28;20497;-67
2022/07/13 15:31:31;;;;;;;4.85;1.90;;;;;;;29.10;60.44;101856.16;10459175;28;20158;-61
2022/07/13 15:36:32;;;;;;;5.60;1.75;;;;;;;29.28;60.26;101867.22;10468760;28;20048;-65
2022/07/13 15:41:32;;;;;;;5.68;1.60;;;;;;;29.62;60.49;101870.66;10464144;28;20036;-64
2022/07/13 15:46:33;;;;;;;8.25;2.83;;;;;;;28.78;61.52;101889.13;10493390;28;20405;-63
2022/07/13 15:51:33;;;;;;;9.73;2.63;;;;;;;27.90;63.17;101897.81;10492401;28;20024;-65
2022/07/13 15:56:34;;;;;;;8.57;2.45;;;;;;;27.29;64.15;101908.81;10461859;28;20040;-64
2022/07/13 16:01:35;;;;;;;10.23;2.50;;;;;;;27.18;64.22;101912.00;10447937;28;20032;-64
2022/07/13 16:06:35;;;;;;;9.05;2.33;;;;;;;26.29;67.55;101923.19;10449460;28;20091;-64
2022/07/13 16:11:36;;;;;;;9.05;1.65;;;;;;;26.01;65.44;101917.13;10450729;28;20044;-64
2022/07/13 16:16:37;;;;;;;12.85;2.50;;;;;;;25.70;66.41;101922.94;10448279;28;20037;-64
2022/07/13 16:21:37;;;;;;;9.15;2.92;;;;;;;26.80;63.50;101911.25;10465999;28;20108;-62
2022/07/13 16:26:38;;;;;;;8.82;1.92;;;;;;;27.02;60.89;101899.66;10452698;28;20068;-64
2022/07/13 16:31:39;;;;;;;9.70;2.30;;;;;;;26.84;62.14;101903.75;10458093;28;20045;-64
2022/07/13 16:36:39;;;;;;;9.05;2.15;;;;;;;26.47;62.27;101909.03;10454517;28;20045;-64
2022/07/13 16:41:39;;;;;;;14.57;2.78;;;;;;;25.41;65.58;101941.34;10476713;28;20040;-64
2022/07/13 16:46:40;;;;;;;21.63;3.83;;;;;;;24.62;69.01;101940.25;10475095;28;20048;-65
2022/07/13 16:51:40;;;;;;;18.95;3.38;;;;;;;24.42;73.16;101961.31;10446656;28;20082;-64
2022/07/13 16:56:41;;;;;;;17.55;3.63;;;;;;;23.88;72.50;101952.84;10449043;28;20036;-64
2022/07/13 17:01:42;;;;;;;14.73;2.40;;;;;;;22.91;75.65;101972.66;10449483;28;20072;-64
2022/07/13 17:06:42;;;;;;;15.50;3.53;;;;;;;22.45;78.84;101992.31;10452586;28;20405;-65
2022/07/13 17:11:44;;;;;;;12.45;2.47;;;;;;;22.19;79.94;101989.13;10447672;28;20037;-64
2022/07/13 17:16:44;;;;;;;16.45;2.85;;;;;;;21.99;82.73;101995.88;10448975;28;20090;-64
2022/07/13 17:21:46;;;;;;;12.45;2.60;;;;;;;21.79;84.57;101997.03;10447827;28;20033;-64
2022/07/13 17:26:47;;;;;;;15.80;3.85;;;;;;;21.55;86.00;101989.53;10443796;28;20104;-64
2022/07/13 17:31:47;;;;;;;19.02;3.67;;;;;;;21.12;87.68;102001.53;10446370;28;20033;-64
2022/07/13 17:36:48;;;;;;;11.25;2.83;;;;;;;20.64;89.75;102001.50;10447540;28;20033;-65
2022/07/13 17:41:49;;;;;;;12.88;3.03;;;;;;;20.15;91.71;101996.88;10446920;28;20055;-64
2022/07/13 17:46:49;;;;;;;14.80;3.05;;;;;;;19.83;94.92;102015.00;10461188;28;20044;-64
2022/07/13 17:51:50;;;;;;;15.35;3.25;;;;;;;19.75;97.05;102002.47;10446891;28;20033;-65
2022/07/13 17:56:50;;;;;;;20.55;2.97;;;;;;;19.82;96.34;102006.91;10446402;28;20049;-66
2022/07/13 18:01:51;;;;;;;15.68;2.78;;;;;;;19.48;96.55;101961.00;10444583;28;20033;-64
2022/07/13 18:06:51;;;;;;;18.27;3.45;;;;;;;19.65;99.53;102018.44;10444821;28;20409;-65
2022/07/13 18:11:51;;;;;;;13.43;2.65;;;;;;;19.75;98.91;102012.81;10446147;28;20037;-64
2022/07/13 18:16:52;;;;;;;13.55;2.13;;;;;;;19.77;99.16;102027.34;10477647;28;20095;-65
2022/07/13 18:21:52;;;;;;;22.55;2.83;;;;;;;19.69;98.64;102019.53;10474637;28;20037;-65
2022/07/13 18:26:53;;;;;;;14.68;2.40;;;;;;;19.69;98.26;102016.75;10460831;28;20041;-64
2022/07/13 18:31:53;;;;;;;13.10;2.90;;;;;;;19.71;97.91;102011.72;10461332;28;20041;-65
2022/07/13 18:36:54;;;;;;;21.80;5.85;;;;;;;19.70;99.28;102026.78;10460763;28;20056;-65
2022/07/13 18:41:54;;;;;;;15.00;2.90;;;;;;;19.52;100.00;102031.91;10460086;28;20051;-65
2022/07/13 18:46:55;;;;;;;16.55;2.53;;;;;;;19.41;100.00;102038.69;10459422;28;20029;-64
2022/07/13 18:51:55;;;;;;;11.18;2.63;;;;;;;19.22;100.00;102037.63;10446618;28;20037;-65
2022/07/13 18:56:56;;;;;;;11.35;2.15;;;;;;;19.02;100.00;102022.63;10474032;28;20040;-65
2022/07/13 19:01:57;;;;;;;16.35;2.42;;;;;;;19.02;100.00;102032.97;10465721;28;20064;-65
2022/07/13 19:06:57;;;;;;;15.77;3.22;;;;;;;18.91;100.00;102027.41;10452004;28;20044;-65
2022/07/13 19:11:57;;;;;;;13.27;2.40;;;;;;;18.69;100.00;102036.06;10453808;28;20041;-65
2022/07/13 19:16:58;;;;;;;12.85;2.17;;;;;;;18.55;100.00;102043.31;10454395;28;20037;-65
2022/07/13 19:21:58;;;;;;;11.73;2.67;;;;;;;18.51;100.00;102050.56;10451805;28;20040;-64
2022/07/13 19:27:14;;;;;;;14.73;2.60;;;;;;;18.53;100.00;102048.34;10453236;28;20052;-65
2022/07/13 19:32:15;;;;;;;15.18;2.25;;;;;;;18.33;100.00;102044.44;10452842;28;20029;-65
2022/07/13 19:37:15;;;;;;;13.23;1.73;;;;;;;18.15;100.00;102042.19;10466485;28;20037;-65
2022/07/13 19:42:16;;;;;;;11.55;1.88;;;;;;;17.99;100.00;102046.91;10453136;28;20041;-65
2022/07/13 19:47:16;;;;;;;6.25;1.83;;;;;;;17.75;100.00;102055.72;10451257;28;20029;-65
2022/07/13 19:52:16;;;;;;;7.75;1.88;;;;;;;17.60;100.00;102063.22;10448695;28;20041;-65
2022/07/13 19:57:17;;;;;;;13.35;1.55;;;;;;;17.44;100.00;102065.91;10448448;28;20040;-65
2022/07/13 20:02:18;;;;;;;14.27;2.75;;;;;;;17.21;100.00;102050.50;10448059;28;20100;-64
2022/07/13 20:07:19;;;;;;;12.65;1.75;;;;;;;17.11;100.00;102070.75;10439347;28;20097;-65
2022/07/13 20:12:19;;;;;;;18.48;3.42;;;;;;;16.98;100.00;102065.69;10449328;28;20079;-64
2022/07/13 20:17:20;;;;;;;9.40;1.50;;;;;;;16.84;100.00;102068.09;10450349;28;20044;-63
2022/07/13 20:22:20;;;;;;;10.38;2.38;;;;;;;16.63;100.00;102072.63;10448502;28;20033;-64
2022/07/13 20:27:21;;;;;;;13.02;1.88;;;;;;;16.43;100.00;102067.72;10461215;28;20539;-64
2022/07/13 20:32:21;;;;;;;14.32;2.42;;;;;;;16.38;100.00;102087.16;10446394;28;20044;-65
2022/07/13 20:37:22;;;;;;;11.63;2.95;;;;;;;16.25;100.00;102095.94;10474605;28;20044;-64
2022/07/13 20:42:22;;;;;;;12.10;2.83;;;;;;;15.89;100.00;102051.09;10446790;28;20040;-63
2022/07/13 20:47:23;;;;;;;12.18;2.40;;;;;;;15.99;100.00;102092.03;10448280;28;20039;-64
2022/07/13 20:52:23;;;;;;;9.68;1.90;;;;;;;15.86;100.00;102096.06;10462542;28;20135;-65
2022/07/13 20:57:24;;;;;;;11.82;2.53;;;;;;;15.70;100.00;102092.22;10447210;28;20059;-65
2022/07/13 21:02:24;;;;;;;13.88;2.33;;;;;;;15.65;100.00;102106.06;10450728;28;20029;-64
2022/07/13 21:07:25;;;;;;;10.32;1.58;;;;;;;15.58;100.00;102106.22;10457659;28;20048;-63
2022/07/13 21:12:25;;;;;;;11.60;1.63;;;;;;;15.54;100.00;102117.03;10449276;28;20079;-64
2022/07/13 21:17:26;;;;;;;8.05;2.35;;;;;;;15.21;100.00;102067.16;10445515;28;20055;-65
2022/07/13 21:22:26;;;;;;;13.73;2.65;;;;;;;15.34;100.00;102106.50;10445771;28;20151;-64
2022/07/13 21:27:27;;;;;;;10.68;3.13;;;;;;;15.30;100.00;102110.03;10447903;28;20044;-64
2022/07/13 21:32:27;;;;;;;9.15;1.55;;;;;;;15.24;100.00;102109.13;10452678;28;20049;-68
2022/07/13 21:37:29;;;;;;;9.00;1.92;;;;;;;15.16;100.00;102100.41;10456341;28;20243;-64
2022/07/13 21:42:30;;;;;;;12.50;2.42;;;;;;;15.03;100.00;102096.91;10446128;28;20138;-64
2022/07/13 21:47:31;;;;;;;9.82;2.67;;;;;;;14.99;100.00;102092.94;10451684;28;20043;-65
2022/07/13 21:52:31;;;;;;;9.55;2.08;;;;;;;14.88;100.00;102091.09;10445723;28;20037;-64
2022/07/13 21:57:32;;;;;;;11.00;2.15;;;;;;;14.85;100.00;102091.63;10443381;28;20040;-64
2022/07/13 22:02:32;;;;;;;9.68;1.83;;;;;;;14.79;100.00;102084.31;10449912;28;20048;-64
2022/07/13 22:07:33;;;;;;;9.45;2.13;;;;;;;14.71;100.00;102091.13;10449142;28;20059;-63
2022/07/13 22:13:11;;;;;;;8.30;1.80;;;;;;;14.58;100.00;102075.66;10445980;28;20068;-64
2022/07/13 22:18:48;;;;;;;9.35;2.10;;;;;;;14.42;100.00;102082.00;10443114;28;20386;-63
2022/07/13 22:24:26;;;;;;;8.85;1.60;;;;;;;14.27;100.00;102077.88;10457675;28;20071;-64
2022/07/13 22:30:04;;;;;;;12.15;2.42;;;;;;;14.13;100.00;102080.13;10447874;28;20037;-64
2022/07/13 22:35:42;;;;;;;10.45;1.80;;;;;;;13.99;100.00;102081.50;10464986;28;20401;-64
2022/07/13 22:41:21;;;;;;;12.30;1.90;;;;;;;13.89;100.00;102082.19;10453786;28;20048;-64
2022/07/13 22:46:59;;;;;;;8.55;2.90;;;;;;;13.91;100.00;102076.38;10455063;28;20097;-64
2022/07/13 22:52:37;;;;;;;11.32;2.47;;;;;;;13.89;100.00;102084.94;10453018;28;20036;-64
2022/07/13 22:58:15;;;;;;;12.38;2.72;;;;;;;13.89;100.00;102087.72;10453360;28;20041;-63
2022/07/13 23:03:53;;;;;;;8.45;2.22;;;;;;;13.92;100.00;102084.44;10454073;28;20068;-63
2022/07/13 23:09:31;;;;;;;7.80;2.15;;;;;;;13.99;100.00;102070.44;10450793;28;20450;-64